Time;durP1;ratioP1;P1;durP2;ratioP2;P2;SDS_P1;SDS_P2;PMS_P1;PMS_P2;Temp;Humidity;BMP_temperature;BMP_pressure;BME280_temperature;BME280_humidity;BME280_pressure;Samples;Min_cycle;Max_cycle;Signal;HPM_P1;HPM_P2
2023/07/12 00:00:00;;;;;;;;;;;;;;;17.60;100.00;100876.09;5041939;28;19929;-46
2023/07/12 00:02:25;;;;;;;;;;;;;;;17.56;100.00;100876.94;5059646;28;19920;-47
2023/07/12 00:04:51;;;;;;;;;;;;;;;17.57;100.00;100867.41;5060715;27;20378;-46
2023/07/12 00:07:17;;;;;;;;;;;;;;;17.53;100.00;100873.47;5058158;28;19952;-46
2023/07/12 00:09:42;;;;;;;;;;;;;;;17.52;100.00;100864.81;5043280;28;19916;-46
2023/07/12 00:12:07;;;;;;;;;;;;;;;17.46;100.00;100883.00;5063534;27;19927;-49
2023/07/12 00:14:33;;;;;;;;;;;;;;;17.41;100.00;100870.03;5062400;28;20003;-50
2023/07/12 00:16:58;;;;;;;;;;;;;;;17.40;100.00;100875.22;5063837;28;19924;-51
2023/07/12 00:19:23;;;;;;;;;;;;;;;17.35;100.00;100880.44;5041060;28;20346;-50
2023/07/12 00:21:48;;;;;;;;;;;;;;;17.35;100.00;100898.63;5047976;28;19935;-47
2023/07/12 00:24:15;;;;;;;;;;;;;;;17.33;100.00;100902.94;5060815;28;19926;-47
2023/07/12 00:26:41;;;;;;;;;;;;;;;17.36;100.00;100897.75;5060679;28;19972;-50
2023/07/12 00:29:07;;;;;;;;;;;;;;;17.37;100.00;100898.63;5041253;28;19920;-46
2023/07/12 00:31:33;;;;;;;;;;;;;;;17.37;100.00;100898.63;5056649;28;19995;-45
2023/07/12 00:33:58;;;;;;;;;;;;;;;17.34;100.00;100904.66;5062217;28;20015;-46
2023/07/12 00:36:25;;;;;;;;;;;;;;;17.34;100.00;100911.59;5057340;27;20412;-46
2023/07/12 00:38:50;;;;;;;;;;;;;;;17.33;100.00;100917.66;5056376;28;19921;-46
2023/07/12 00:41:22;;;;;;;;;;;;;;;17.33;100.00;100925.47;5056587;28;19938;-47
2023/07/12 00:43:55;;;;;;;;;;;;;;;17.33;100.00;100933.25;5060464;27;19995;-47
2023/07/12 00:46:31;;;;;;;;;;;;;;;17.33;100.00;100939.31;5052855;28;20470;-47
2023/07/12 00:48:56;;;;;;;;;;;;;;;17.32;100.00;100955.78;5053228;28;19921;-46
2023/07/12 00:51:25;;;;;;;;;;;;;;;17.30;100.00;100954.06;5056993;28;19924;-48
2023/07/12 00:53:50;;;;;;;;;;;;;;;17.26;100.00;100954.91;5053106;28;19932;-48
2023/07/12 00:56:15;;;;;;;;;;;;;;;17.23;100.00;100962.69;5054074;28;19916;-48
2023/07/12 00:58:43;;;;;;;;;;;;;;;17.21;100.00;100972.22;5056728;28;19949;-48
2023/07/12 01:01:09;;;;;;;;;;;;;;;17.15;100.00;100960.94;5061532;28;20408;-47
2023/07/12 01:03:38;;;;;;;;;;;;;;;17.13;100.00;100970.47;5059602;28;19950;-46
2023/07/12 01:06:06;;;;;;;;;;;;;;;17.15;100.00;100986.91;5061527;28;19916;-47
2023/07/12 01:08:31;;;;;;;;;;;;;;;17.10;100.00;100992.97;5053699;28;20015;-48
2023/07/12 01:10:58;;;;;;;;;;;;;;;17.09;100.00;100949.66;5064840;28;20491;-47
2023/07/12 01:13:24;;;;;;;;;;;;;;;17.04;100.00;100960.03;5059918;27;19972;-47
2023/07/12 01:15:49;;;;;;;;;;;;;;;17.01;100.00;101003.34;5061888;28;19928;-46
2023/07/12 01:18:14;;;;;;;;;;;;;;;17.02;100.00;100982.56;5063714;28;19932;-46
2023/07/12 01:20:41;;;;;;;;;;;;;;;16.99;100.00;100977.34;5061326;28;19924;-46
2023/07/12 01:23:06;;;;;;;;;;;;;;;16.99;100.00;100966.09;5060049;28;19930;-46
2023/07/12 01:25:36;;;;;;;;;;;;;;;16.99;100.00;100928.00;5063515;28;19920;-46
2023/07/12 01:28:01;;;;;;;;;;;;;;;17.02;100.00;100946.19;5064375;28;19957;-46
2023/07/12 01:30:27;;;;;;;;;;;;;;;17.01;100.00;100928.00;5056295;27;19963;-46
2023/07/12 01:32:53;;;;;;;;;;;;;;;16.94;100.00;100931.44;5063392;28;19928;-46
2023/07/12 01:35:18;;;;;;;;;;;;;;;16.84;100.00;100922.75;5060687;28;20385;-46
2023/07/12 01:37:44;;;;;;;;;;;;;;;16.76;100.00;100934.84;5065100;28;20309;-45
2023/07/12 01:40:09;;;;;;;;;;;;;;;16.72;100.00;100941.75;5063852;28;19959;-47
2023/07/12 01:42:34;;;;;;;;;;;;;;;16.69;100.00;100935.66;5063464;27;19920;-45
2023/07/12 01:45:00;;;;;;;;;;;;;;;16.68;100.00;100921.78;5060675;28;19921;-49
2023/07/12 01:47:25;;;;;;;;;;;;;;;16.59;100.00;100912.22;5064843;28;20382;-45
2023/07/12 01:49:50;;;;;;;;;;;;;;;16.53;100.00;100916.53;5064021;28;19966;-46
2023/07/12 01:52:15;;;;;;;;;;;;;;;16.51;100.00;100907.88;5060274;27;19928;-47
2023/07/12 01:54:41;;;;;;;;;;;;;;;16.47;100.00;100888.81;5046805;28;19934;-46
2023/07/12 01:57:06;;;;;;;;;;;;;;;16.42;100.00;100887.06;5060615;28;20019;-45
2023/07/12 01:59:31;;;;;;;;;;;;;;;16.38;100.00;100878.41;5066450;28;19917;-45
2023/07/12 02:01:57;;;;;;;;;;;;;;;16.34;100.00;100863.69;5062364;27;20542;-45
2023/07/12 02:04:22;;;;;;;;;;;;;;;16.32;100.00;100891.38;5061130;27;19921;-45
2023/07/12 02:06:47;;;;;;;;;;;;;;;16.31;100.00;100899.97;5061225;28;19921;-45
2023/07/12 02:09:12;;;;;;;;;;;;;;;16.31;100.00;100884.41;5062362;28;19958;-45
2023/07/12 02:11:37;;;;;;;;;;;;;;;16.32;100.00;100874.06;5063240;28;19956;-44
2023/07/12 02:14:03;;;;;;;;;;;;;;;16.28;100.00;100874.03;5065415;28;19974;-47
2023/07/12 02:16:28;;;;;;;;;;;;;;;16.26;100.00;100938.00;5061397;28;20324;-47
2023/07/12 02:18:53;;;;;;;;;;;;;;;16.26;100.00;100961.34;5061559;28;20293;-44
2023/07/12 02:21:18;;;;;;;;;;;;;;;16.25;100.00;100938.88;5059590;28;19928;-45
2023/07/12 02:23:44;;;;;;;;;;;;;;;16.17;100.00;100923.25;5064535;28;19921;-46
2023/07/12 02:26:09;;;;;;;;;;;;;;;16.12;100.00;100924.94;5041488;28;19960;-47
2023/07/12 02:28:34;;;;;;;;;;;;;;;16.09;100.00;100932.72;5062555;28;19972;-45
2023/07/12 02:31:15;;;;;;;;;;;;;;;16.08;100.00;100933.59;5060932;28;19931;-46
2023/07/12 02:33:40;;;;;;;;;;;;;;;16.03;100.00;100912.81;5065216;28;19975;-47
2023/07/12 02:36:05;;;;;;;;;;;;;;;16.01;100.00;100904.13;5049331;27;19964;-46
2023/07/12 02:38:30;;;;;;;;;;;;;;;15.99;100.00;100905.84;5062239;28;19928;-46
2023/07/12 02:40:56;;;;;;;;;;;;;;;15.98;100.00;100921.41;5060903;28;19924;-46
2023/07/12 02:43:21;;;;;;;;;;;;;;;15.94;100.00;100904.94;5065533;28;19922;-45
2023/07/12 02:45:47;;;;;;;;;;;;;;;15.92;100.00;100919.63;5060827;28;19921;-45
2023/07/12 02:48:12;;;;;;;;;;;;;;;15.87;100.00;100925.66;5060537;28;20056;-45
2023/07/12 02:50:38;;;;;;;;;;;;;;;15.87;100.00;100936.03;5058559;28;20378;-46
2023/07/12 02:53:13;;;;;;;;;;;;;;;15.85;100.00;100936.03;5062324;27;19930;-45
2023/07/12 02:55:38;;;;;;;;;;;;;;;15.77;100.00;100933.38;5047201;28;19924;-46
2023/07/12 02:58:03;;;;;;;;;;;;;;;15.73;100.00;100934.19;5062261;27;20267;-44
2023/07/12 03:00:28;;;;;;;;;;;;;;;15.72;100.00;100941.97;5044772;28;20457;-47
2023/07/12 03:02:54;;;;;;;;;;;;;;;15.69;100.00;100944.53;5063591;28;19999;-46
2023/07/12 03:05:19;;;;;;;;;;;;;;;15.67;100.00;100941.06;5060239;28;19963;-45
2023/07/12 03:07:44;;;;;;;;;;;;;;;15.71;100.00;100932.44;5061833;28;19924;-54
2023/07/12 03:10:09;;;;;;;;;;;;;;;15.65;100.00;100929.78;5056403;27;19936;-48
2023/07/12 03:12:35;;;;;;;;;;;;;;;15.64;100.00;100934.09;5059460;28;20605;-45
2023/07/12 03:15:00;;;;;;;;;;;;;;;15.64;100.00;100933.22;5061170;28;20409;-48
2023/07/12 03:17:25;;;;;;;;;;;;;;;15.64;100.00;100936.69;5060515;28;19921;-45
2023/07/12 03:19:51;;;;;;;;;;;;;;;15.64;100.00;100933.22;5062763;28;19955;-46
2023/07/12 03:22:16;;;;;;;;;;;;;;;15.61;100.00;100939.25;5058567;28;19957;-45
2023/07/12 03:24:41;;;;;;;;;;;;;;;15.57;100.00;100927.97;5060424;28;19929;-45
2023/07/12 03:27:06;;;;;;;;;;;;;;;15.57;100.00;100937.47;5062206;28;19964;-45
2023/07/12 03:29:32;;;;;;;;;;;;;;;15.61;100.00;100939.25;5057488;28;19981;-46
2023/07/12 03:31:57;;;;;;;;;;;;;;;15.63;100.00;100941.88;5057239;28;20405;-45
2023/07/12 03:34:22;;;;;;;;;;;;;;;15.55;100.00;100942.66;5056941;28;19917;-45
2023/07/12 03:36:47;;;;;;;;;;;;;;;15.57;100.00;100946.09;5063574;28;19928;-47
2023/07/12 03:39:14;;;;;;;;;;;;;;;15.55;100.00;100953.00;5058114;28;20386;-46
2023/07/12 03:41:39;;;;;;;;;;;;;;;15.55;100.00;100968.56;5059116;28;19920;-44
2023/07/12 03:44:04;;;;;;;;;;;;;;;15.56;100.00;100972.03;5038295;27;19924;-45
2023/07/12 03:46:29;;;;;;;;;;;;;;;15.59;100.00;100974.63;5060055;28;19928;-45
2023/07/12 03:48:55;;;;;;;;;;;;;;;15.56;100.00;100975.47;5061586;28;19920;-45
2023/07/12 03:51:22;;;;;;;;;;;;;;;15.62;100.00;100968.63;5058760;28;20019;-47
2023/07/12 03:53:47;;;;;;;;;;;;;;;15.57;100.00;100968.56;5062059;28;19938;-44
2023/07/12 03:56:13;;;;;;;;;;;;;;;15.56;100.00;100972.03;5062657;28;19916;-49
2023/07/12 03:58:39;;;;;;;;;;;;;;;15.60;100.00;100970.34;5044197;28;19921;-49
2023/07/12 04:01:05;;;;;;;;;;;;;;;15.57;100.00;100968.56;5062579;28;19921;-49
2023/07/12 04:03:31;;;;;;;;;;;;;;;15.59;100.00;100986.72;5056660;28;20023;-46
2023/07/12 04:05:56;;;;;;;;;;;;;;;15.59;100.00;100974.63;5061709;28;20345;-48
2023/07/12 04:08:22;;;;;;;;;;;;;;;15.57;100.00;100985.00;5060385;28;19965;-50
2023/07/12 04:10:51;;;;;;;;;;;;;;;15.55;100.00;100973.75;5045406;28;19921;-47
2023/07/12 04:13:16;;;;;;;;;;;;;;;15.57;100.00;100978.94;5057931;28;19981;-47
2023/07/12 04:15:42;;;;;;;;;;;;;;;15.60;100.00;100985.91;5048668;28;19920;-46
2023/07/12 04:18:07;;;;;;;;;;;;;;;15.59;100.00;100982.41;5051729;27;20035;-46
2023/07/12 04:20:36;;;;;;;;;;;;;;;15.59;100.00;100981.53;5059878;28;20375;-48
2023/07/12 04:23:01;;;;;;;;;;;;;;;15.59;100.00;100994.50;5054569;28;19931;-48
2023/07/12 04:25:26;;;;;;;;;;;;;;;15.61;100.00;100996.28;5058474;28;19999;-50
2023/07/12 04:27:51;;;;;;;;;;;;;;;15.60;100.00;100989.34;5054017;27;19968;-46
2023/07/12 04:30:17;;;;;;;;;;;;;;;15.64;100.00;100993.72;5054928;28;20409;-46
2023/07/12 04:32:42;;;;;;;;;;;;;;;15.68;100.00;100986.84;5052021;28;20355;-48
2023/07/12 04:35:07;;;;;;;;;;;;;;;15.72;100.00;100991.22;5063430;27;19984;-50
2023/07/12 04:37:34;;;;;;;;;;;;;;;15.78;100.00;100993.88;5065121;28;19920;-48
2023/07/12 04:39:59;;;;;;;;;;;;;;;15.81;100.00;100996.47;5060639;28;19923;-46
2023/07/12 04:42:24;;;;;;;;;;;;;;;15.80;100.00;100992.16;5057049;28;19920;-49
2023/07/12 04:44:49;;;;;;;;;;;;;;;15.76;100.00;100993.84;5064763;28;19979;-49
2023/07/12 04:47:15;;;;;;;;;;;;;;;15.75;100.00;100996.41;5063862;28;19921;-48
2023/07/12 04:49:41;;;;;;;;;;;;;;;15.72;100.00;100989.50;5066263;27;19928;-49
2023/07/12 04:52:07;;;;;;;;;;;;;;;15.71;100.00;100987.75;5055823;27;19916;-45
2023/07/12 04:54:33;;;;;;;;;;;;;;;15.68;100.00;100986.84;5060449;28;19924;-46
2023/07/12 04:56:59;;;;;;;;;;;;;;;15.95;100.00;100994.84;5049729;28;20386;-48
2023/07/12 04:59:24;;;;;;;;;;;;;;;16.38;100.00;100992.59;5063168;28;19916;-49
2023/07/12 05:01:50;;;;;;;;;;;;;;;16.79;100.00;100997.16;5067287;28;19925;-48
2023/07/12 05:04:15;;;;;;;;;;;;;;;17.08;100.00;101005.09;5064006;27;20382;-49
2023/07/12 05:06:40;;;;;;;;;;;;;;;17.34;100.00;101005.16;5062007;28;19923;-47
2023/07/12 05:09:05;;;;;;;;;;;;;;;17.43;100.00;101005.19;5062610;28;20349;-50
2023/07/12 05:11:31;;;;;;;;;;;;;;;17.53;100.00;101003.47;5058090;28;19928;-50
2023/07/12 05:13:56;;;;;;;;;;;;;;;17.83;100.00;101010.47;5062236;27;20039;-48
2023/07/12 05:16:21;;;;;;;;;;;;;;;17.97;100.00;101000.09;5060359;28;19973;-46
2023/07/12 05:18:46;;;;;;;;;;;;;;;18.17;100.00;101003.53;5064094;28;20430;-50
2023/07/12 05:21:12;;;;;;;;;;;;;;;18.33;99.23;101009.59;5052895;28;19929;-47
2023/07/12 05:23:39;;;;;;;;;;;;;;;18.44;98.40;101002.63;5057334;28;19921;-47
2023/07/12 05:26:05;;;;;;;;;;;;;;;18.57;96.31;101006.97;5056711;27;19968;-48
2023/07/12 05:28:30;;;;;;;;;;;;;;;18.41;95.33;101000.91;5058926;28;19990;-50
2023/07/12 05:30:55;;;;;;;;;;;;;;;18.28;96.64;101017.41;5064793;27;19935;-55
2023/07/12 05:33:21;;;;;;;;;;;;;;;18.43;96.81;101019.97;5043311;28;20480;-54
2023/07/12 05:35:46;;;;;;;;;;;;;;;18.76;97.19;101033.84;5064267;28;20394;-55
2023/07/12 05:38:11;;;;;;;;;;;;;;;19.04;93.54;101029.38;5061216;28;19971;-55
2023/07/12 05:40:37;;;;;;;;;;;;;;;19.14;92.45;101032.84;5064268;28;19923;-55
2023/07/12 05:43:02;;;;;;;;;;;;;;;19.39;92.12;101033.56;5063774;28;20359;-54
2023/07/12 05:45:27;;;;;;;;;;;;;;;19.67;93.01;101034.31;5061662;28;19921;-54
2023/07/12 05:47:52;;;;;;;;;;;;;;;19.67;89.85;101036.94;5064550;28;19925;-56
2023/07/12 05:50:19;;;;;;;;;;;;;;;19.65;89.74;101030.84;5063763;28;20382;-55
2023/07/12 05:52:45;;;;;;;;;;;;;;;19.80;90.79;101029.00;5060023;28;20399;-55
2023/07/12 05:55:11;;;;;;;;;;;;;;;20.04;89.68;101030.56;5062268;28;19978;-55
2023/07/12 05:57:36;;;;;;;;;;;;;;;20.07;88.63;101038.34;5064452;28;19969;-54
2023/07/12 06:00:03;;;;;;;;;;;;;;;20.25;89.21;101039.94;5067373;27;19924;-55
2023/07/12 06:02:28;;;;;;;;;;;;;;;20.12;85.40;101045.28;5060238;28;19928;-55
2023/07/12 06:04:54;;;;;;;;;;;;;;;19.71;88.98;101041.22;5062716;28;19916;-55
2023/07/12 06:07:19;;;;;;;;;;;;;;;19.33;88.58;101044.91;5062797;28;19928;-54
2023/07/12 06:09:44;;;;;;;;;;;;;;;19.11;88.90;101049.38;5059126;28;19920;-59
2023/07/12 06:12:10;;;;;;;;;;;;;;;19.00;89.24;101059.81;5060876;28;20004;-55
2023/07/12 06:14:35;;;;;;;;;;;;;;;18.93;91.00;101052.03;5059513;28;20016;-56
2023/07/12 06:17:01;;;;;;;;;;;;;;;18.84;90.73;101046.84;5061529;28;20388;-55
2023/07/12 06:19:26;;;;;;;;;;;;;;;18.88;91.68;101048.56;5063755;28;19927;-56
2023/07/12 06:21:52;;;;;;;;;;;;;;;18.81;90.70;101059.88;5040557;28;19916;-56
2023/07/12 06:24:18;;;;;;;;;;;;;;;18.59;92.94;101059.91;5062472;28;19924;-55
2023/07/12 06:26:43;;;;;;;;;;;;;;;18.59;92.11;101059.03;5062080;28;19913;-55
2023/07/12 06:29:08;;;;;;;;;;;;;;;18.56;93.00;101057.28;5060232;28;19945;-55
2023/07/12 06:31:33;;;;;;;;;;;;;;;18.61;91.98;101062.50;5059651;28;19924;-55
2023/07/12 06:34:00;;;;;;;;;;;;;;;18.54;92.68;101064.22;5055792;27;20382;-55
2023/07/12 06:36:25;;;;;;;;;;;;;;;18.52;94.36;101065.97;5064752;27;19925;-56
2023/07/12 06:38:51;;;;;;;;;;;;;;;18.44;93.09;101075.53;5064634;28;19920;-56
2023/07/12 06:41:16;;;;;;;;;;;;;;;18.34;93.50;101073.81;5063197;28;20385;-55
2023/07/12 06:43:41;;;;;;;;;;;;;;;18.20;94.10;101092.91;5063432;28;20280;-55
2023/07/12 06:46:07;;;;;;;;;;;;;;;18.13;93.74;101093.75;5061836;28;20306;-57
2023/07/12 06:48:32;;;;;;;;;;;;;;;18.03;94.89;101107.63;5060307;28;19920;-55
2023/07/12 06:50:58;;;;;;;;;;;;;;;17.94;94.30;101105.00;5062400;28;19920;-55
2023/07/12 06:53:23;;;;;;;;;;;;;;;17.89;96.19;101104.13;5060357;27;19970;-55
2023/07/12 06:55:48;;;;;;;;;;;;;;;17.83;95.85;101107.56;5059757;27;19924;-56
2023/07/12 06:58:13;;;;;;;;;;;;;;;17.79;95.93;101105.84;5059557;28;20317;-55
2023/07/12 07:00:40;;;;;;;;;;;;;;;17.82;96.74;101104.97;5061042;28;19916;-55
2023/07/12 07:03:08;;;;;;;;;;;;;;;17.88;96.53;101108.47;5059859;28;19920;-56
2023/07/12 07:05:33;;;;;;;;;;;;;;;18.00;97.13;101114.56;5054008;28;19921;-56
2023/07/12 07:07:58;;;;;;;;;;;;;;;18.09;96.07;101115.44;5054905;27;20756;-56
2023/07/12 07:10:24;;;;;;;;;;;;;;;18.14;94.45;101120.63;5059357;28;20316;-56
2023/07/12 07:12:49;;;;;;;;;;;;;;;18.06;94.13;101135.38;5061449;28;19929;-56
2023/07/12 07:15:14;;;;;;;;;;;;;;;17.99;94.61;101131.91;5060339;27;19917;-56
2023/07/12 07:17:40;;;;;;;;;;;;;;;17.93;94.03;101132.75;5065229;28;19920;-55
2023/07/12 07:20:05;;;;;;;;;;;;;;;17.85;94.41;101129.28;5061050;28;19935;-56
2023/07/12 07:22:31;;;;;;;;;;;;;;;17.93;94.33;101135.34;5060873;28;19925;-56
2023/07/12 07:24:56;;;;;;;;;;;;;;;17.95;95.31;101130.16;5058122;27;19927;-56
2023/07/12 07:27:22;;;;;;;;;;;;;;;17.95;94.90;101127.56;5063499;28;19920;-57
2023/07/12 07:29:48;;;;;;;;;;;;;;;17.95;95.03;101138.81;5059692;28;19912;-56
2023/07/12 07:32:13;;;;;;;;;;;;;;;18.01;94.50;101139.72;5064883;27;19924;-54
2023/07/12 07:34:38;;;;;;;;;;;;;;;18.02;93.87;101152.75;5057600;28;19964;-56
2023/07/12 07:37:03;;;;;;;;;;;;;;;18.07;93.28;101152.72;5061694;28;19917;-55
2023/07/12 07:39:30;;;;;;;;;;;;;;;18.08;94.67;101155.34;5060561;28;19932;-56
2023/07/12 07:41:56;;;;;;;;;;;;;;;18.25;93.29;101160.56;5054754;27;20496;-56
2023/07/12 07:44:21;;;;;;;;;;;;;;;18.34;93.09;101163.19;5042971;28;19999;-57
2023/07/12 07:46:46;;;;;;;;;;;;;;;18.45;92.99;101166.69;5064816;28;20383;-55
2023/07/12 07:49:12;;;;;;;;;;;;;;;18.60;92.19;101164.94;5062675;28;20014;-56
2023/07/12 07:51:37;;;;;;;;;;;;;;;18.65;92.32;101158.84;5063705;28;19920;-56
2023/07/12 07:54:03;;;;;;;;;;;;;;;18.71;91.02;101160.63;5059931;28;19932;-56
2023/07/12 07:56:28;;;;;;;;;;;;;;;18.84;90.17;101164.09;5061164;28;20004;-55
2023/07/12 07:58:53;;;;;;;;;;;;;;;18.91;90.38;101164.06;5044452;28;20390;-56
2023/07/12 08:01:18;;;;;;;;;;;;;;;19.05;88.65;101166.66;5062600;28;20077;-56
2023/07/12 08:03:44;;;;;;;;;;;;;;;19.13;89.60;101172.72;5062220;28;19928;-56
2023/07/12 08:06:09;;;;;;;;;;;;;;;19.21;88.02;101172.69;5064160;27;19917;-56
2023/07/12 08:08:34;;;;;;;;;;;;;;;19.28;86.70;101180.50;5063963;28;19935;-55
2023/07/12 08:11:00;;;;;;;;;;;;;;;19.23;87.98;101181.38;5067229;28;19916;-56
2023/07/12 08:13:26;;;;;;;;;;;;;;;19.33;86.13;101177.00;5050210;28;20015;-55
2023/07/12 08:15:54;;;;;;;;;;;;;;;19.34;87.13;101171.78;5061248;27;19921;-56
2023/07/12 08:18:19;;;;;;;;;;;;;;;19.48;85.63;101179.59;5064981;28;19913;-56
2023/07/12 08:20:44;;;;;;;;;;;;;;;19.60;85.23;101183.94;5064056;28;19924;-55
2023/07/12 08:23:10;;;;;;;;;;;;;;;19.64;85.08;101183.03;5061993;28;20429;-56
2023/07/12 08:25:35;;;;;;;;;;;;;;;19.66;83.60;101194.34;5065481;28;19927;-56
2023/07/12 08:28:00;;;;;;;;;;;;;;;19.64;84.04;101186.50;5061611;28;19924;-56
2023/07/12 08:30:25;;;;;;;;;;;;;;;19.65;83.54;101193.44;5065811;28;19928;-55
2023/07/12 08:32:51;;;;;;;;;;;;;;;19.63;82.52;101197.81;5065557;27;20287;-55
2023/07/12 08:35:16;;;;;;;;;;;;;;;19.62;81.94;101197.81;5066249;28;19928;-55
2023/07/12 08:37:42;;;;;;;;;;;;;;;19.96;82.50;101208.97;5061697;28;20412;-56
2023/07/12 08:40:11;;;;;;;;;;;;;;;20.51;81.99;101198.22;5063337;28;19963;-56
2023/07/12 08:42:40;;;;;;;;;;;;;;;20.91;80.56;101192.66;5060624;28;19962;-56
2023/07/12 08:45:25;;;;;;;;;;;;;;;21.19;77.67;101193.25;5062413;28;19965;-56
2023/07/12 08:47:53;;;;;;;;;;;;;;;21.20;76.95;101201.06;5062130;28;19920;-56
2023/07/12 08:50:19;;;;;;;;;;;;;;;21.11;76.84;101207.28;5058694;27;21191;-57
2023/07/12 08:52:44;;;;;;;;;;;;;;;21.26;79.36;101197.53;5064256;28;19925;-56
2023/07/12 08:55:18;;;;;;;;;;;;;;;21.57;73.63;101200.69;5064163;28;19927;-56
2023/07/12 08:57:44;;;;;;;;;;;;;;;21.74;73.41;101196.13;5066949;28;20378;-56
2023/07/12 09:00:12;;;;;;;;;;;;;;;21.74;73.24;101203.97;5066010;28;19965;-56
2023/07/12 09:02:38;;;;;;;;;;;;;;;21.74;73.15;101198.75;5067359;28;19912;-56
2023/07/12 09:05:14;;;;;;;;;;;;;;;21.80;70.65;101205.66;5065661;28;19913;-56
2023/07/12 09:07:44;;;;;;;;;;;;;;;21.64;71.31;101207.59;5066962;28;19916;-56
2023/07/12 09:10:09;;;;;;;;;;;;;;;21.61;73.37;101208.50;5064599;28;19925;-55
2023/07/12 09:12:35;;;;;;;;;;;;;;;21.92;74.26;101211.59;5065241;28;19969;-56
2023/07/12 09:15:03;;;;;;;;;;;;;;;22.26;70.07;101216.38;5063602;28;19982;-56
2023/07/12 09:17:31;;;;;;;;;;;;;;;22.26;68.55;101212.91;5067068;28;19913;-56
2023/07/12 09:19:57;;;;;;;;;;;;;;;22.18;70.36;101205.16;5048052;28;19912;-55
2023/07/12 09:22:22;;;;;;;;;;;;;;;22.14;68.50;101204.31;5062435;28;19923;-56
2023/07/12 09:24:52;;;;;;;;;;;;;;;22.26;67.13;101203.28;5061667;28;20494;-56
2023/07/12 09:27:23;;;;;;;;;;;;;;;22.22;67.26;101199.00;5066011;28;20005;-55
2023/07/12 09:29:56;;;;;;;;;;;;;;;22.32;66.24;101194.47;5066312;28;19912;-56
2023/07/12 09:32:24;;;;;;;;;;;;;;;22.24;65.72;101197.22;5066384;28;19927;-56
2023/07/12 09:34:50;;;;;;;;;;;;;;;22.25;66.79;101187.59;5065790;28;20035;-55
2023/07/12 09:37:16;;;;;;;;;;;;;;;22.55;67.56;101199.34;5065168;28;20413;-55
2023/07/12 09:39:52;;;;;;;;;;;;;;;22.70;66.84;101191.25;5060534;28;20006;-55
2023/07/12 09:42:18;;;;;;;;;;;;;;;22.72;63.99;101190.34;5061112;28;19960;-55
2023/07/12 09:44:46;;;;;;;;;;;;;;;22.73;66.21;101185.94;5058907;28;20412;-55
2023/07/12 09:47:14;;;;;;;;;;;;;;;22.69;65.64;101187.78;5058469;28;20373;-55
2023/07/12 09:49:47;;;;;;;;;;;;;;;22.78;64.87;101191.13;5055397;28;19916;-55
2023/07/12 09:52:31;;;;;;;;;;;;;;;22.91;63.39;101195.28;5062480;28;20006;-54
2023/07/12 09:55:15;;;;;;;;;;;;;;;22.73;61.76;101185.94;5064877;28;19985;-55
2023/07/12 09:57:43;;;;;;;;;;;;;;;22.68;61.27;101174.66;5063643;28;19920;-56
2023/07/12 10:00:29;;;;;;;;;;;;;;;22.73;60.08;101180.72;5064031;28;19981;-55
2023/07/12 10:02:55;;;;;;;;;;;;;;;22.55;61.70;101178.41;5053403;28;20382;-55
2023/07/12 10:05:21;;;;;;;;;;;;;;;22.23;61.61;101179.78;5059226;27;19978;-56
2023/07/12 10:08:00;;;;;;;;;;;;;;;22.23;61.78;101174.53;5059665;28;19920;-55
2023/07/12 10:10:30;;;;;;;;;;;;;;;22.20;63.94;101170.22;5061408;28;19916;-55
2023/07/12 10:13:07;;;;;;;;;;;;;;;22.54;63.98;101174.06;5055780;28;20487;-55
2023/07/12 10:15:36;;;;;;;;;;;;;;;22.68;62.14;101172.06;5065050;28;20385;-55
2023/07/12 10:18:02;;;;;;;;;;;;;;;22.76;62.89;101170.19;5061437;28;19920;-55
2023/07/12 10:20:28;;;;;;;;;;;;;;;22.93;60.30;101169.91;5066587;28;20012;-55
2023/07/12 10:22:53;;;;;;;;;;;;;;;22.92;60.48;101176.91;5062811;28;20021;-56
2023/07/12 10:25:24;;;;;;;;;;;;;;;23.16;57.81;101179.97;5063477;27;19921;-54
2023/07/12 10:27:54;;;;;;;;;;;;;;;23.21;55.07;101186.84;5060385;28;20582;-53
2023/07/12 10:30:21;;;;;;;;;;;;;;;23.21;57.57;101176.38;5056951;28;19973;-54
2023/07/12 10:32:48;;;;;;;;;;;;;;;23.20;57.91;101184.28;5060202;28;19933;-55
2023/07/12 10:35:17;;;;;;;;;;;;;;;23.29;58.66;101184.94;5060006;28;20773;-54
2023/07/12 10:37:58;;;;;;;;;;;;;;;23.42;57.35;101185.59;5051433;28;19920;-55
2023/07/12 10:40:26;;;;;;;;;;;;;;;23.51;57.90;101182.75;5056511;28;19924;-55
2023/07/12 10:42:54;;;;;;;;;;;;;;;23.21;57.83;101183.38;5055543;28;19921;-54
2023/07/12 10:45:29;;;;;;;;;;;;;;;23.19;60.01;101187.78;5055863;28;19946;-55
2023/07/12 10:47:55;;;;;;;;;;;;;;;23.39;57.61;101190.88;5056954;28;19916;-55
2023/07/12 10:50:35;;;;;;;;;;;;;;;23.32;57.91;101191.91;5052388;28;20289;-55
2023/07/12 10:53:10;;;;;;;;;;;;;;;23.30;58.81;101188.47;5048225;28;20033;-55
2023/07/12 10:55:42;;;;;;;;;;;;;;;23.32;56.79;101189.28;5058076;28;19920;-58
2023/07/12 10:58:27;;;;;;;;;;;;;;;23.32;58.58;101186.66;5059199;28;20015;-55
2023/07/12 11:00:57;;;;;;;;;;;;;;;23.51;58.82;101185.38;5059500;28;19928;-56
2023/07/12 11:03:33;;;;;;;;;;;;;;;23.73;58.34;101183.22;5057208;28;19925;-57
2023/07/12 11:06:06;;;;;;;;;;;;;;;24.04;56.95;101185.19;5060183;28;20390;-56
2023/07/12 11:08:31;;;;;;;;;;;;;;;24.21;56.27;101182.19;5053640;28;19965;-55
2023/07/12 11:11:01;;;;;;;;;;;;;;;24.26;56.19;101182.91;5052901;28;20302;-56
2023/07/12 11:13:32;;;;;;;;;;;;;;;24.23;53.74;101181.22;5057677;28;20378;-54
2023/07/12 11:16:05;;;;;;;;;;;;;;;24.24;55.28;101185.56;5056921;28;19917;-55
2023/07/12 11:18:37;;;;;;;;;;;;;;;24.23;53.38;101194.38;5058924;28;20362;-56
2023/07/12 11:21:02;;;;;;;;;;;;;;;24.27;53.59;101184.66;5056412;28;20378;-56
2023/07/12 11:23:45;;;;;;;;;;;;;;;24.49;52.76;101183.25;5055415;27;20011;-55
2023/07/12 11:26:20;;;;;;;;;;;;;;;24.55;54.05;101193.63;5053058;28;19925;-56
2023/07/12 11:28:46;;;;;;;;;;;;;;;24.50;52.38;101203.38;5056853;28;19974;-56
2023/07/12 11:31:11;;;;;;;;;;;;;;;24.17;51.90;101198.91;5055330;28;20000;-56
2023/07/12 11:33:37;;;;;;;;;;;;;;;24.10;53.14;101190.28;5058015;27;20290;-55
2023/07/12 11:36:18;;;;;;;;;;;;;;;24.18;54.00;101188.34;5060360;28;20430;-56
2023/07/12 11:38:45;;;;;;;;;;;;;;;24.29;52.75;101188.09;5057366;28;19916;-56
2023/07/12 11:41:15;;;;;;;;;;;;;;;24.14;52.70;101197.19;5056699;28;19921;-56
2023/07/12 11:43:40;;;;;;;;;;;;;;;24.01;54.80;101201.00;5034668;28;20068;-56
2023/07/12 11:46:23;;;;;;;;;;;;;;;23.84;54.69;101206.59;5055152;28;19925;-55
2023/07/12 11:48:50;;;;;;;;;;;;;;;23.41;56.36;101207.47;5061327;28;20394;-55
2023/07/12 11:51:18;;;;;;;;;;;;;;;23.07;57.21;101216.88;5057452;28;20015;-55
2023/07/12 11:53:57;;;;;;;;;;;;;;;22.88;58.01;101219.81;5064667;28;19924;-56
2023/07/12 11:56:24;;;;;;;;;;;;;;;22.91;58.26;101208.41;5051139;28;20316;-55
2023/07/12 11:58:50;;;;;;;;;;;;;;;23.19;57.71;101208.78;5068438;28;19920;-56
2023/07/12 12:01:17;;;;;;;;;;;;;;;23.23;58.25;101218.31;5061897;28;20035;-56
2023/07/12 12:03:43;;;;;;;;;;;;;;;23.34;56.83;101210.25;5036350;28;19921;-56
2023/07/12 12:06:12;;;;;;;;;;;;;;;23.32;57.58;101205.03;5060796;28;19973;-56
2023/07/12 12:08:38;;;;;;;;;;;;;;;23.37;57.05;101218.94;5056041;28;19924;-56
2023/07/12 12:11:03;;;;;;;;;;;;;;;23.32;56.81;101222.53;5057553;28;19935;-57
2023/07/12 12:13:30;;;;;;;;;;;;;;;23.19;56.16;101221.91;5057810;28;20315;-56
2023/07/12 12:16:04;;;;;;;;;;;;;;;23.09;56.87;101228.19;5055222;28;20405;-56
2023/07/12 12:18:30;;;;;;;;;;;;;;;22.98;57.60;101224.00;5060350;28;20318;-56
2023/07/12 12:21:14;;;;;;;;;;;;;;;22.93;57.21;101224.97;5063646;28;20427;-55
2023/07/12 12:23:40;;;;;;;;;;;;;;;23.03;56.68;101223.91;5053991;28;19917;-56
2023/07/12 12:26:19;;;;;;;;;;;;;;;23.31;56.86;101221.66;5058385;28;19935;-55
2023/07/12 12:28:49;;;;;;;;;;;;;;;23.66;55.83;101222.75;5063256;28;19920;-56
2023/07/12 12:31:19;;;;;;;;;;;;;;;23.97;54.43;101230.88;5055106;28;19961;-55